createdAt,value
2018-04-17T00:01:51.227Z,44.35
2018-04-17T00:04:18.817Z,47.60
2018-04-17T00:06:46.413Z,55.88
2018-04-17T00:09:14.006Z,50.50
2018-04-17T00:11:42.422Z,40.28
2018-04-17T00:14:10.082Z,41.65
2018-04-17T00:16:37.677Z,50.75
2018-04-17T00:19:05.275Z,42.40
2018-04-17T00:21:32.889Z,40.10
2018-04-17T00:24:01.251Z,73.82
2018-04-17T00:26:28.834Z,41.10
2018-04-17T00:28:56.451Z,76.57
2018-04-17T00:31:24.039Z,44.83
2018-04-17T00:33:51.619Z,61.78
2018-04-17T00:36:19.226Z,42.40
2018-04-17T00:38:46.812Z,85.72
2018-04-17T00:41:14.402Z,44.63
2018-04-17T00:43:42.783Z,77.20
2018-04-17T00:46:11.145Z,75.80
2018-04-17T00:48:38.736Z,91.07
2018-04-17T00:51:06.350Z,89.18
2018-04-17T00:53:45.646Z,90.28
2018-04-17T00:56:13.275Z,118.45
2018-04-17T00:58:40.871Z,80.60
2018-04-17T01:01:08.454Z,65.60
2018-04-17T01:03:36.069Z,61.00
2018-04-17T01:06:04.428Z,61.30
2018-04-17T01:08:32.008Z,90.03
2018-04-17T01:10:59.625Z,49.05
2018-04-17T01:13:27.217Z,88.10
2018-04-17T01:15:54.807Z,98.12
2018-04-17T01:18:22.422Z,83.93
2018-04-17T01:20:50.782Z,62.03
2018-04-17T01:23:18.379Z,85.22
2018-04-17T01:25:46.759Z,79.85
2018-04-17T01:28:14.342Z,37.70
2018-04-17T01:30:41.943Z,34.28
2018-04-17T01:33:09.558Z,45.97
2018-04-17T01:35:37.175Z,34.00
2018-04-17T01:38:04.783Z,33.10
2018-04-17T01:40:32.399Z,41.33
2018-04-17T01:42:59.992Z,53.95
2018-04-17T01:45:28.337Z,29.85
2018-04-17T01:47:55.960Z,55.80
2018-04-17T01:50:24.308Z,67.25
2018-04-17T01:52:51.886Z,63.35
2018-04-17T01:55:19.481Z,41.10
2018-04-17T01:57:47.078Z,38.08
2018-04-17T02:00:14.698Z,45.10
2018-04-17T02:02:42.287Z,68.90
2018-04-17T02:05:09.881Z,71.47
2018-04-17T02:07:38.238Z,97.37
2018-04-17T02:10:05.817Z,54.42
2018-04-17T02:12:33.426Z,71.80
2018-04-17T02:15:01.787Z,62.62
2018-04-17T02:17:29.387Z,38.58
2018-04-17T02:19:57.753Z,62.70
2018-04-17T02:22:25.349Z,78.72
2018-04-17T02:24:53.731Z,69.53
2018-04-17T02:27:21.306Z,67.15
2018-04-17T02:29:48.882Z,69.35
2018-04-17T02:32:16.567Z,46.10
2018-04-17T02:34:44.117Z,38.58
2018-04-17T02:37:11.727Z,37.60
2018-04-17T02:39:39.323Z,32.72
2018-04-17T02:42:06.927Z,28.42
2018-04-17T02:44:34.535Z,31.25
2018-04-17T02:47:02.902Z,34.00
2018-04-17T02:49:30.507Z,47.58
2018-04-17T02:51:58.095Z,32.85
2018-04-17T02:54:25.672Z,52.90
2018-04-17T02:56:53.264Z,56.47
2018-04-17T02:59:20.866Z,46.88
2018-04-17T03:01:48.470Z,57.88
2018-04-17T03:04:16.906Z,44.50
2018-04-17T03:06:44.486Z,46.75
2018-04-17T03:09:12.085Z,48.83
2018-04-17T03:11:39.679Z,58.40
2018-04-17T03:14:08.047Z,53.70
2018-04-17T03:16:35.642Z,75.65
2018-04-17T03:19:03.990Z,51.15
2018-04-17T03:21:31.578Z,41.63
2018-04-17T03:23:59.254Z,39.05
2018-04-17T03:26:26.879Z,39.50
2018-04-17T03:28:54.463Z,34.25
2018-04-17T03:31:22.038Z,29.35
2018-04-17T03:33:49.643Z,62.62
2018-04-17T03:36:17.230Z,65.50
2018-04-17T03:38:44.863Z,33.83
2018-04-17T03:41:12.453Z,41.08
2018-04-17T03:43:40.268Z,36.25
2018-04-17T03:46:08.644Z,44.05
2018-04-17T03:48:36.451Z,49.20
2018-04-17T03:51:04.061Z,44.60
2018-04-17T03:53:31.638Z,43.67
2018-04-17T03:55:59.222Z,49.88
2018-04-17T03:58:26.826Z,80.90
2018-04-17T04:00:55.186Z,107.03
2018-04-17T04:03:22.846Z,95.60
2018-04-17T04:05:50.431Z,91.12
2018-04-17T04:08:18.018Z,123.78
2018-04-17T04:10:45.615Z,89.20
2018-04-17T04:13:13.975Z,86.32
2018-04-17T04:15:41.692Z,100.32
2018-04-17T04:18:21.112Z,82.72
2018-04-17T04:21:00.599Z,58.55
2018-04-17T04:23:40.237Z,50.65
2018-04-17T04:26:20.469Z,56.60
2018-04-17T04:28:48.047Z,48.33
2018-04-17T04:31:15.638Z,103.85
2018-04-17T04:33:43.255Z,44.92
2018-04-17T04:36:10.832Z,49.05
2018-04-17T04:38:38.435Z,58.33
2018-04-17T04:41:06.026Z,83.05
2018-04-17T04:43:33.615Z,54.40
2018-04-17T04:46:01.230Z,53.75
2018-04-17T04:48:28.820Z,60.50
2018-04-17T04:50:56.430Z,55.03
2018-04-17T04:53:24.075Z,46.70
2018-04-17T04:55:51.651Z,50.30
2018-04-17T04:58:19.261Z,72.75
2018-04-17T05:00:46.858Z,51.65
2018-04-17T05:03:14.456Z,95.32
2018-04-17T05:05:42.051Z,62.03
2018-04-17T05:08:09.627Z,89.53
2018-04-17T05:10:37.252Z,104.40
2018-04-17T05:13:04.884Z,111.75
2018-04-17T05:15:32.510Z,120.30
2018-04-17T05:18:00.118Z,109.03
2018-04-17T05:20:27.774Z,122.55
2018-04-17T05:22:55.398Z,120.78
2018-04-17T05:25:23.753Z,145.45
2018-04-17T05:27:51.363Z,149.70
2018-04-17T05:30:19.737Z,112.47
2018-04-17T05:32:47.337Z,122.65
2018-04-17T05:35:15.701Z,130.95
2018-04-17T05:37:43.291Z,117.97
2018-04-17T05:40:11.738Z,121.13
2018-04-17T05:42:39.307Z,130.90
2018-04-17T05:45:06.896Z,130.05
2018-04-17T05:47:34.505Z,130.80
2018-04-17T05:50:02.871Z,111.97
2018-04-17T05:52:30.491Z,120.62
2018-04-17T05:54:58.319Z,147.50
2018-04-17T05:57:25.915Z,138.07
2018-04-17T05:59:53.526Z,137.57
2018-04-17T06:02:21.126Z,184.50
2018-04-17T06:04:48.746Z,177.98
2018-04-17T06:07:17.110Z,166.45
2018-04-17T06:09:45.558Z,236.75
2018-04-17T06:12:13.160Z,152.45
2018-04-17T06:14:40.767Z,164.02
2018-04-17T06:17:09.171Z,160.88
2018-04-17T06:19:37.524Z,109.35
2018-04-17T06:22:05.107Z,127.43
2018-04-17T06:24:32.767Z,71.82
2018-04-17T06:27:00.375Z,73.43
2018-04-17T06:29:28.749Z,106.70
2018-04-17T06:31:56.329Z,93.00
2018-04-17T06:34:24.122Z,108.55
2018-04-17T06:36:52.487Z,77.15
2018-04-17T06:39:20.078Z,71.37
2018-04-17T06:41:47.837Z,87.22
2018-04-17T06:44:15.629Z,61.30
2018-04-17T06:46:43.995Z,78.32
2018-04-17T06:49:11.634Z,78.62
2018-04-17T06:51:39.305Z,63.40
2018-04-17T06:54:07.030Z,101.65
2018-04-17T06:56:34.705Z,69.07
2018-04-17T06:59:03.083Z,73.35
2018-04-17T07:01:30.706Z,65.87
2018-04-17T07:03:59.062Z,93.62
2018-04-17T07:06:26.683Z,76.57
2018-04-17T07:08:54.274Z,102.40
2018-04-17T07:11:21.861Z,119.37
2018-04-17T07:13:49.475Z,93.95
2018-04-17T07:16:17.063Z,111.88
2018-04-17T07:18:45.438Z,99.32
2018-04-17T07:21:13.021Z,118.60
2018-04-17T07:23:40.621Z,97.43
2018-04-17T07:26:08.260Z,108.65
2018-04-17T07:28:35.838Z,99.93
2018-04-17T07:31:04.210Z,67.53
2018-04-17T07:33:31.802Z,98.68
2018-04-17T07:36:00.155Z,71.75
2018-04-17T07:38:27.755Z,69.03
2018-04-17T07:40:55.359Z,104.32
2018-04-17T07:43:23.026Z,71.85
2018-04-17T07:45:50.629Z,68.28
2018-04-17T07:48:30.085Z,87.05
2018-04-17T07:50:57.677Z,71.07
2018-04-17T07:53:25.270Z,61.00
2018-04-17T07:55:52.869Z,67.75
2018-04-17T07:58:21.219Z,71.93
2018-04-17T08:00:48.834Z,89.07
2018-04-17T08:03:17.189Z,92.60
2018-04-17T08:05:44.779Z,67.07
2018-04-17T08:08:12.393Z,68.05
2018-04-17T08:10:39.999Z,63.22
2018-04-17T08:13:07.611Z,86.28
2018-04-17T08:15:35.968Z,59.75
2018-04-17T08:18:03.562Z,59.55
2018-04-17T08:20:31.175Z,68.07
2018-04-17T08:22:58.768Z,61.55
2018-04-17T08:25:26.386Z,58.87
2018-04-17T08:27:53.978Z,72.97
2018-04-17T08:30:21.583Z,74.15
2018-04-17T08:32:49.190Z,94.78
2018-04-17T08:35:16.770Z,70.47
2018-04-17T08:37:44.391Z,71.87
2018-04-17T08:40:11.987Z,78.60
2018-04-17T08:42:39.581Z,84.07
2018-04-17T08:45:07.195Z,61.08
2018-04-17T08:47:34.778Z,59.50
2018-04-17T08:50:02.430Z,80.18
2018-04-17T08:52:30.795Z,67.30
2018-04-17T08:54:58.452Z,77.82
2018-04-17T08:57:26.054Z,59.63
2018-04-17T08:59:53.643Z,60.53
2018-04-17T09:02:22.027Z,82.15
2018-04-17T09:04:49.601Z,54.15
2018-04-17T09:07:17.189Z,80.28
2018-04-17T09:09:45.569Z,63.40
2018-04-17T09:12:13.917Z,54.67
2018-04-17T09:14:41.539Z,107.68
2018-04-17T09:17:09.928Z,84.37
2018-04-17T09:19:37.497Z,63.50
2018-04-17T09:22:05.858Z,92.75
2018-04-17T09:24:33.445Z,90.03
2018-04-17T09:27:01.027Z,70.10
2018-04-17T09:29:29.405Z,94.45
2018-04-17T09:31:56.998Z,81.47
2018-04-17T09:34:25.417Z,76.93
2018-04-17T09:36:52.989Z,81.63
2018-04-17T09:39:20.573Z,89.25
2018-04-17T09:41:48.179Z,84.68
2018-04-17T09:44:15.765Z,92.05
2018-04-17T09:46:43.378Z,86.43
2018-04-17T09:49:10.969Z,75.12
2018-04-17T09:51:38.560Z,68.90
2018-04-17T09:54:06.153Z,76.80
2018-04-17T09:56:33.734Z,67.93
2018-04-17T09:59:01.339Z,57.97
2018-04-17T10:01:28.917Z,57.20
2018-04-17T10:03:56.521Z,52.47
2018-04-17T10:06:24.121Z,55.05
2018-04-17T10:08:51.716Z,42.55
2018-04-17T10:11:19.310Z,53.03
2018-04-17T10:13:46.893Z,57.72
2018-04-17T10:16:14.477Z,53.83
2018-04-17T10:18:42.072Z,55.77
2018-04-17T10:21:09.630Z,46.17
2018-04-17T10:23:37.219Z,48.23
2018-04-17T10:26:04.778Z,59.40
2018-04-17T10:28:32.372Z,58.90
2018-04-17T10:30:59.982Z,48.97
2018-04-17T10:33:27.552Z,49.07
2018-04-17T10:35:55.134Z,44.50
2018-04-17T10:38:22.722Z,47.88
2018-04-17T10:40:51.057Z,53.50
2018-04-17T10:43:18.637Z,50.13
2018-04-17T10:45:47.327Z,49.97
2018-04-17T10:48:14.921Z,47.00
2018-04-17T10:50:42.487Z,45.40
2018-04-17T10:53:10.499Z,44.80
2018-04-17T10:55:38.862Z,52.93
2018-04-17T10:58:06.434Z,53.57
2018-04-17T11:00:34.024Z,45.53
2018-04-17T11:03:02.386Z,52.38
2018-04-17T11:05:29.955Z,55.33
2018-04-17T11:07:57.573Z,49.88
2018-04-17T11:10:25.189Z,55.75
2018-04-17T11:12:52.814Z,59.10
2018-04-17T11:15:20.405Z,47.53
2018-04-17T11:17:47.987Z,51.28
2018-04-17T11:20:15.592Z,56.58
2018-04-17T11:22:43.203Z,59.97
2018-04-17T11:25:11.603Z,52.35
2018-04-17T11:27:39.184Z,52.95
2018-04-17T11:30:06.766Z,51.78
2018-04-17T11:32:34.371Z,57.38
2018-04-17T11:35:01.987Z,52.55
2018-04-17T11:37:30.388Z,48.90
2018-04-17T11:39:57.991Z,55.38
2018-04-17T11:42:25.574Z,55.05
2018-04-17T11:44:53.173Z,56.03
2018-04-17T11:47:20.767Z,53.70
2018-04-17T11:49:49.147Z,50.90
2018-04-17T11:52:16.739Z,56.22
2018-04-17T11:54:44.354Z,53.87
2018-04-17T11:57:11.978Z,59.72
2018-04-17T11:59:40.354Z,56.13
2018-04-17T12:02:07.965Z,53.90
2018-04-17T12:04:35.571Z,45.55
2018-04-17T12:07:03.129Z,47.57
2018-04-17T12:09:30.712Z,49.80
2018-04-17T12:11:58.270Z,43.07
2018-04-17T12:14:26.626Z,52.13
2018-04-17T12:16:54.218Z,55.53
2018-04-17T12:19:21.783Z,46.70
2018-04-17T12:21:49.387Z,44.10
2018-04-17T12:24:16.955Z,47.23
2018-04-17T12:26:45.310Z,55.00
2018-04-17T12:29:12.871Z,53.40
2018-04-17T12:31:40.445Z,45.07
2018-04-17T12:34:08.027Z,49.90
2018-04-17T12:36:35.593Z,52.70
2018-04-17T12:39:03.193Z,51.63
2018-04-17T12:41:31.511Z,43.77
2018-04-17T12:43:59.069Z,51.63
2018-04-17T12:46:27.412Z,51.70
2018-04-17T12:48:54.976Z,50.57
2018-04-17T12:51:22.567Z,54.50
2018-04-17T12:53:50.125Z,45.77
2018-04-17T12:56:17.673Z,47.20
2018-04-17T12:58:45.258Z,47.40
2018-04-17T13:01:12.826Z,45.30
2018-04-17T13:03:40.410Z,42.83
2018-04-17T13:06:07.983Z,47.47
2018-04-17T13:08:35.534Z,48.67
2018-04-17T13:11:03.122Z,41.17
2018-04-17T13:13:30.715Z,41.20
2018-04-17T13:15:58.322Z,50.03
2018-04-17T13:18:26.668Z,49.60
2018-04-17T13:20:54.238Z,42.20
2018-04-17T13:23:21.831Z,48.27
2018-04-17T13:25:49.405Z,44.37
2018-04-17T13:28:17.000Z,44.23
2018-04-17T13:30:45.331Z,42.57
2018-04-17T13:33:12.939Z,40.67
2018-04-17T13:35:40.527Z,41.60
2018-04-17T13:38:08.090Z,39.07
2018-04-17T13:40:35.689Z,36.53
2018-04-17T13:43:04.031Z,43.73
2018-04-17T13:45:31.599Z,44.30
2018-04-17T13:47:59.181Z,42.57
2018-04-17T13:50:26.763Z,39.70
2018-04-17T13:52:54.342Z,43.30
2018-04-17T13:55:21.936Z,43.03
2018-04-17T13:57:49.503Z,39.40
2018-04-17T14:00:17.088Z,41.60
2018-04-17T14:02:45.461Z,37.13
2018-04-17T14:05:13.030Z,35.00
2018-04-17T14:07:40.602Z,40.13
2018-04-17T14:10:08.180Z,35.37
2018-04-17T14:12:35.767Z,38.63
2018-04-17T14:15:04.099Z,34.93
2018-04-17T14:17:31.697Z,41.50
2018-04-17T14:19:59.291Z,36.77
2018-04-17T14:22:26.870Z,36.13
2018-04-17T14:24:55.222Z,35.87
2018-04-17T14:27:22.779Z,40.50
2018-04-17T14:29:50.378Z,42.80
2018-04-17T14:32:17.951Z,35.77
2018-04-17T14:34:45.514Z,41.17
2018-04-17T14:37:13.115Z,36.73
2018-04-17T14:39:40.731Z,41.30
2018-04-17T14:42:08.326Z,36.80
2018-04-17T14:44:35.890Z,38.07
2018-04-17T14:47:03.499Z,38.40
2018-04-17T14:49:31.144Z,31.43
2018-04-17T14:51:58.708Z,36.97
2018-04-17T14:54:26.315Z,33.40
2018-04-17T14:56:53.895Z,31.77
2018-04-17T14:59:22.255Z,36.60
2018-04-17T15:01:49.825Z,36.67
2018-04-17T15:04:17.390Z,41.80
2018-04-17T15:06:45.018Z,38.20
2018-04-17T15:09:12.609Z,33.00
2018-04-17T15:11:40.208Z,35.35
2018-04-17T15:14:08.221Z,30.95
2018-04-17T15:16:35.819Z,28.45
2018-04-17T15:19:04.042Z,32.53
2018-04-17T15:21:31.679Z,29.52
2018-04-17T15:23:59.462Z,32.10
2018-04-17T15:26:27.099Z,35.70
2018-04-17T15:28:54.710Z,34.92
2018-04-17T15:31:22.331Z,29.58
2018-04-17T15:33:49.980Z,33.60
2018-04-17T15:36:17.589Z,27.80
2018-04-17T15:38:45.215Z,25.67
2018-04-17T15:41:12.779Z,24.20
2018-04-17T15:43:40.406Z,27.92
2018-04-17T15:46:08.007Z,26.80
2018-04-17T15:48:36.380Z,26.55
2018-04-17T15:51:03.990Z,28.48
2018-04-17T15:53:32.338Z,29.00
2018-04-17T15:55:59.963Z,25.40
2018-04-17T15:58:27.561Z,29.77
2018-04-17T16:00:55.146Z,25.60
2018-04-17T16:03:22.784Z,23.98
2018-04-17T16:05:51.392Z,27.25
2018-04-17T16:08:19.012Z,25.40
2018-04-17T16:10:46.605Z,27.25
2018-04-17T16:13:15.418Z,27.48
2018-04-17T16:15:43.049Z,23.65
2018-04-17T16:18:10.688Z,26.37
2018-04-17T16:20:38.289Z,26.67
2018-04-17T16:23:05.922Z,26.95
2018-04-17T16:25:33.510Z,21.27
2018-04-17T16:28:01.129Z,22.83
2018-04-17T16:30:28.719Z,22.55
2018-04-17T16:32:57.123Z,19.73
2018-04-17T16:35:25.487Z,22.48
2018-04-17T16:37:53.078Z,22.05
2018-04-17T16:40:21.473Z,21.70
2018-04-17T16:42:49.823Z,18.12
2018-04-17T16:45:17.440Z,18.95
2018-04-17T16:47:45.799Z,19.23
2018-04-17T16:50:13.391Z,16.37
2018-04-17T16:52:40.997Z,18.48
2018-04-17T16:55:08.573Z,16.90
2018-04-17T16:57:36.180Z,19.02
2018-04-17T17:00:03.814Z,20.23
2018-04-17T17:02:31.411Z,18.30
2018-04-17T17:04:59.027Z,18.80
2018-04-17T17:07:26.618Z,17.85
2018-04-17T17:09:55.005Z,19.58
2018-04-17T17:12:23.370Z,18.00
2018-04-17T17:14:50.980Z,18.40
2018-04-17T17:17:19.363Z,17.27
2018-04-17T17:19:47.725Z,15.35
2018-04-17T17:22:15.348Z,15.82
2018-04-17T17:24:42.933Z,16.50
2018-04-17T17:27:10.605Z,17.83
2018-04-17T17:29:40.019Z,15.75
2018-04-17T17:32:07.707Z,17.20
2018-04-17T17:34:35.318Z,17.48
2018-04-17T17:37:02.934Z,16.83
2018-04-17T17:39:30.534Z,18.45
2018-04-17T17:41:58.138Z,18.92
2018-04-17T17:44:25.736Z,17.30
2018-04-17T17:46:54.110Z,16.98
2018-04-17T17:49:21.721Z,17.27
2018-04-17T17:51:49.321Z,17.35
2018-04-17T17:54:16.957Z,16.25
2018-04-17T17:56:45.316Z,19.02
2018-04-17T17:59:12.945Z,15.05
2018-04-17T18:01:40.581Z,15.18
2018-04-17T18:04:08.938Z,13.98
2018-04-17T18:06:36.857Z,15.93
2018-04-17T18:09:06.014Z,13.57
2018-04-17T18:11:33.663Z,15.90
2018-04-17T18:14:01.347Z,15.57
2018-04-17T18:16:28.962Z,19.35
2018-04-17T18:18:56.630Z,19.58
2018-04-17T18:21:24.264Z,19.20
2018-04-17T18:23:51.850Z,17.98
2018-04-17T18:26:19.474Z,15.95
2018-04-17T18:28:47.142Z,15.50
2018-04-17T18:31:14.766Z,14.30
2018-04-17T18:33:42.376Z,13.77
2018-04-17T18:36:09.954Z,14.05
2018-04-17T18:38:37.611Z,17.33
2018-04-17T18:41:05.205Z,17.08
2018-04-17T18:43:32.862Z,14.65
2018-04-17T18:46:00.445Z,15.90
2018-04-17T18:48:28.061Z,16.40
2018-04-17T18:50:55.674Z,16.08
2018-04-17T18:53:23.871Z,14.63
2018-04-17T18:55:51.486Z,18.02
2018-04-17T18:58:19.843Z,18.80
2018-04-17T19:00:47.432Z,17.40
2018-04-17T19:03:15.042Z,20.83
2018-04-17T19:05:42.655Z,16.55
2018-04-17T19:08:10.273Z,15.80
2018-04-17T19:10:37.891Z,16.30
2018-04-17T19:13:05.484Z,14.90
2018-04-17T19:15:33.094Z,15.93
2018-04-17T19:18:01.456Z,16.17
2018-04-17T19:20:29.215Z,18.77
2018-04-17T19:22:58.277Z,16.42
2018-04-17T19:25:26.639Z,16.50
2018-04-17T19:27:54.254Z,21.75
2018-04-17T19:30:22.820Z,20.08
2018-04-17T19:32:50.452Z,22.67
2018-04-17T19:35:18.063Z,22.67
2018-04-17T19:37:46.727Z,18.90
2018-04-17T19:40:14.349Z,25.20
2018-04-17T19:42:42.733Z,24.67
2018-04-17T19:45:10.430Z,22.65
2018-04-17T19:47:38.024Z,22.58
2018-04-17T19:50:05.603Z,22.20
2018-04-17T19:52:33.211Z,23.15
2018-04-17T19:55:00.803Z,23.20
2018-04-17T19:57:29.199Z,18.83
2018-04-17T19:59:57.558Z,22.02
2018-04-17T20:02:25.151Z,18.83
2018-04-17T20:04:52.759Z,20.10
2018-04-17T20:07:20.350Z,17.62
2018-04-17T20:09:47.962Z,21.77
2018-04-17T20:12:15.551Z,22.62
2018-04-17T20:14:43.906Z,22.13
2018-04-17T20:17:11.538Z,21.80
2018-04-17T20:19:39.127Z,22.55
2018-04-17T20:22:06.799Z,23.67
2018-04-17T20:24:34.382Z,22.83
2018-04-17T20:27:01.974Z,22.73
2018-04-17T20:29:29.571Z,21.73
2018-04-17T20:31:57.202Z,18.52
2018-04-17T20:34:24.814Z,21.02
2018-04-17T20:36:52.402Z,17.73
2018-04-17T20:39:19.991Z,19.35
2018-04-17T20:41:49.136Z,18.17
2018-04-17T20:44:16.735Z,19.62
2018-04-17T20:46:44.349Z,23.48
2018-04-17T20:49:13.043Z,24.08
2018-04-17T20:51:41.390Z,20.15
2018-04-17T20:54:08.998Z,25.08
2018-04-17T20:56:36.585Z,24.20
2018-04-17T20:59:04.959Z,25.27
2018-04-17T21:01:32.542Z,20.20
2018-04-17T21:04:00.885Z,21.70
2018-04-17T21:06:28.486Z,24.30
2018-04-17T21:08:56.082Z,22.60
2018-04-17T21:11:24.458Z,20.80
2018-04-17T21:13:52.046Z,22.65
2018-04-17T21:16:20.406Z,23.60
2018-04-17T21:18:49.276Z,19.50
2018-04-17T21:21:16.866Z,19.62
2018-04-17T21:23:44.466Z,23.85
2018-04-17T21:26:12.064Z,23.92
2018-04-17T21:28:40.427Z,24.15
2018-04-17T21:31:08.030Z,23.10
2018-04-17T21:33:36.379Z,23.20
2018-04-17T21:36:03.987Z,21.10
2018-04-17T21:38:32.346Z,23.95
2018-04-17T21:40:59.931Z,24.58
2018-04-17T21:43:27.550Z,21.90
2018-04-17T21:45:55.939Z,23.52
2018-04-17T21:48:23.527Z,23.25
2018-04-17T21:50:51.125Z,23.30
2018-04-17T21:53:18.698Z,24.75
2018-04-17T21:55:46.323Z,22.10
2018-04-17T21:58:14.695Z,19.17
2018-04-17T22:00:43.061Z,19.83
2018-04-17T22:03:10.670Z,22.85
2018-04-17T22:05:39.024Z,23.52
2018-04-17T22:08:06.629Z,22.98
2018-04-17T22:10:34.974Z,23.90
2018-04-17T22:13:02.554Z,25.25
2018-04-17T22:15:30.149Z,27.48
2018-04-17T22:17:57.743Z,20.40
2018-04-17T22:20:26.123Z,24.48
2018-04-17T22:22:54.475Z,27.52
2018-04-17T22:25:22.067Z,27.42
2018-04-17T22:27:49.662Z,27.42
2018-04-17T22:30:17.243Z,21.55
2018-04-17T22:32:45.609Z,27.85
2018-04-17T22:35:13.196Z,25.27
2018-04-17T22:37:40.834Z,26.92
2018-04-17T22:40:08.434Z,24.17
2018-04-17T22:42:36.014Z,19.85
2018-04-17T22:45:03.623Z,25.10
2018-04-17T22:47:31.330Z,28.50
2018-04-17T22:49:58.923Z,26.40
2018-04-17T22:52:27.335Z,26.58
2018-04-17T22:54:55.692Z,27.33
2018-04-17T22:57:23.743Z,28.42
2018-04-17T22:59:51.332Z,28.70
2018-04-17T23:02:18.910Z,28.67
2018-04-17T23:04:46.511Z,31.17
2018-04-17T23:07:14.091Z,29.67
2018-04-17T23:09:41.704Z,31.08
2018-04-17T23:12:09.277Z,29.80
2018-04-17T23:14:36.854Z,29.42
2018-04-17T23:17:04.450Z,30.00
2018-04-17T23:19:32.030Z,32.17
2018-04-17T23:21:59.639Z,38.88
2018-04-17T23:24:27.236Z,37.47
2018-04-17T23:26:54.811Z,41.70
2018-04-17T23:29:22.412Z,39.53
2018-04-17T23:31:49.985Z,38.08
2018-04-17T23:34:17.586Z,30.75
2018-04-17T23:36:45.162Z,31.55
2018-04-17T23:39:12.749Z,25.92
2018-04-17T23:41:40.347Z,33.15
2018-04-17T23:44:07.913Z,32.92
2018-04-17T23:46:35.517Z,30.35
2018-04-17T23:49:03.094Z,35.63
2018-04-17T23:51:30.666Z,32.03
2018-04-17T23:53:58.261Z,37.65
2018-04-17T23:56:25.844Z,39.15
2018-04-17T23:58:53.451Z,36.70
